Saratoga Springs, NY

2:59 PM EDT on August 27, 2016 (GMT -0400)
KNYSARAT7 | | Change Station

Elev 309 ft 43.06 °N, 73.78 °W | Updated 2 seconds ago

Mostly Cloudy
Mostly Cloudy
84.6 °F
Feels Like 85 °F
N
1.0
Wind Variable Wind from East
Gusts 9.0 mph

Today
High -- | Low -- °F
--% Chance of Precip.
Yesterday
High -- | Low -- °F
Precip. -- in
Pressure 30.19 in
Visibility 15.0 miles
Clouds Mostly Cloudy 5000 ft
Heat Index 85 °F
Dew Point 62 °F
Humidity 46%
Rainfall 0.00 in
Snow Depth Not available.
6:14 AM 7:37 PM
Waning Crescent, 22% visible
METAR KSCH 271755Z 00000KT 15SM BKN050 29/17 A3019
Pressure 30.19 in
Visibility 15.0 miles
Clouds Mostly Cloudy 5000 ft
Heat Index 85 °F
Dew Point 62 °F
Humidity 46%
Rainfall 0.00 in
Snow Depth Not available.
6:14 AM 7:37 PM
Waning Crescent, 22% visible
METAR KSCH 271755Z 00000KT 15SM BKN050 29/17 A3019

10-Day Weather Forecast

Almanac

Astronomy

Aug. 27, 2016 Rise Set
Actual Time
Civil Twilight
Nautical Twilight
Astronomical Twilight
Moon
Length of Visible Light
Length of Day
Tomorrow will be .
, % of the Moon is Illuminated

Today's Extremes

State Highs State Lows

Community

WunderPhotos

Upload Photos

1,935,399 photos uploaded!

WunderBlog® & News

Nearby

Air Quality

  Air Quality AQ Index Pollutant
Not available.

Snow Depth

Station Depth Elevation

Earthquake Activity

City Distance Mag. Time & Date
Minimum magnitude displayed is 2.5.

Coastal Water Temperatures

Place Temperature

Stations

Nearby Weather Stations

Station Location Temp. Windchill Dew Point Humidity Wind Precip. Elev Updated Type
                   

Watches & Warnings

There are currently no watches in effect.